sensor_id;sensor_type;location;lat;lon;timestamp;pressure;altitude;pressure_sealevel;temperature;humidity
29839;BME280;18669;53.356;-1.464;2023-04-28T00:00:44;99937.81;;;8.29;100.00
29839;BME280;18669;53.356;-1.464;2023-04-28T00:03:30;99932.50;;;8.32;100.00
29839;BME280;18669;53.356;-1.464;2023-04-28T00:06:15;99926.44;;;8.30;100.00
29839;BME280;18669;53.356;-1.464;2023-04-28T00:09:00;99922.09;;;8.29;100.00
29839;BME280;18669;53.356;-1.464;2023-04-28T00:11:45;99917.63;;;8.32;100.00
29839;BME280;18669;53.356;-1.464;2023-04-28T00:14:30;99916.78;;;8.32;100.00
29839;BME280;18669;53.356;-1.464;2023-04-28T00:17:15;99906.34;;;8.29;100.00
29839;BME280;18669;53.356;-1.464;2023-04-28T00:20:00;99902.88;;;8.28;100.00
29839;BME280;18669;53.356;-1.464;2023-04-28T00:22:45;99895.81;;;8.30;100.00
29839;BME280;18669;53.356;-1.464;2023-04-28T00:25:30;99894.03;;;8.32;100.00
29839;BME280;18669;53.356;-1.464;2023-04-28T00:28:15;99896.78;;;8.28;100.00
29839;BME280;18669;53.356;-1.464;2023-04-28T00:31:00;99884.63;;;8.25;100.00
29839;BME280;18669;53.356;-1.464;2023-04-28T00:33:45;99894.13;;;8.29;100.00
29839;BME280;18669;53.356;-1.464;2023-04-28T00:36:30;99896.63;;;8.34;100.00
29839;BME280;18669;53.356;-1.464;2023-04-28T00:39:16;99892.25;;;8.34;100.00
29839;BME280;18669;53.356;-1.464;2023-04-28T00:42:01;99888.66;;;8.39;100.00
29839;BME280;18669;53.356;-1.464;2023-04-28T00:44:47;99876.59;;;8.31;100.00
29839;BME280;18669;53.356;-1.464;2023-04-28T00:47:33;99873.72;;;8.42;100.00
29839;BME280;18669;53.356;-1.464;2023-04-28T00:50:18;99873.81;;;8.38;100.00
29839;BME280;18669;53.356;-1.464;2023-04-28T00:53:03;99875.53;;;8.40;100.00
29839;BME280;18669;53.356;-1.464;2023-04-28T00:55:49;99873.50;;;8.53;100.00
29839;BME280;18669;53.356;-1.464;2023-04-28T00:58:36;99871.06;;;8.44;100.00
29839;BME280;18669;53.356;-1.464;2023-04-28T01:01:21;99870.31;;;8.39;100.00
29839;BME280;18669;53.356;-1.464;2023-04-28T01:04:05;99867.75;;;8.35;100.00
29839;BME280;18669;53.356;-1.464;2023-04-28T01:06:51;99876.19;;;8.50;100.00
29839;BME280;18669;53.356;-1.464;2023-04-28T01:09:37;99874.63;;;8.41;100.00
29839;BME280;18669;53.356;-1.464;2023-04-28T01:12:22;99865.72;;;8.48;100.00
29839;BME280;18669;53.356;-1.464;2023-04-28T01:15:11;99857.69;;;8.56;100.00
29839;BME280;18669;53.356;-1.464;2023-04-28T01:17:59;99847.38;;;8.48;100.00
29839;BME280;18669;53.356;-1.464;2023-04-28T01:20:43;99855.09;;;8.55;100.00
29839;BME280;18669;53.356;-1.464;2023-04-28T01:23:28;99857.69;;;8.56;100.00
29839;BME280;18669;53.356;-1.464;2023-04-28T01:26:13;99849.94;;;8.51;100.00
29839;BME280;18669;53.356;-1.464;2023-04-28T01:28:58;99847.31;;;8.51;100.00
29839;BME280;18669;53.356;-1.464;2023-04-28T01:31:43;99845.66;;;8.47;100.00
29839;BME280;18669;53.356;-1.464;2023-04-28T01:34:28;99838.69;;;8.46;100.00
29839;BME280;18669;53.356;-1.464;2023-04-28T01:37:13;99836.00;;;8.49;100.00
29839;BME280;18669;53.356;-1.464;2023-04-28T01:39:58;99832.47;;;8.50;100.00
29839;BME280;18669;53.356;-1.464;2023-04-28T01:42:43;99824.59;;;8.52;100.00
29839;BME280;18669;53.356;-1.464;2023-04-28T01:45:27;99838.53;;;8.53;100.00
29839;BME280;18669;53.356;-1.464;2023-04-28T01:48:12;99835.09;;;8.50;100.00
29839;BME280;18669;53.356;-1.464;2023-04-28T01:50:57;99836.00;;;8.48;100.00
29839;BME280;18669;53.356;-1.464;2023-04-28T01:53:42;99833.28;;;8.53;100.00
29839;BME280;18669;53.356;-1.464;2023-04-28T01:56:27;99822.88;;;8.49;100.00
29839;BME280;18669;53.356;-1.464;2023-04-28T01:59:12;99822.72;;;8.56;100.00
29839;BME280;18669;53.356;-1.464;2023-04-28T02:01:57;99825.34;;;8.57;100.00
29839;BME280;18669;53.356;-1.464;2023-04-28T02:04:41;99811.44;;;8.54;100.00
29839;BME280;18669;53.356;-1.464;2023-04-28T02:07:26;99815.63;;;8.61;100.00
29839;BME280;18669;53.356;-1.464;2023-04-28T02:10:11;99815.69;;;8.58;100.00
29839;BME280;18669;53.356;-1.464;2023-04-28T02:12:56;99817.41;;;8.59;100.00
29839;BME280;18669;53.356;-1.464;2023-04-28T02:15:42;99814.78;;;8.60;100.00
29839;BME280;18669;53.356;-1.464;2023-04-28T02:18:27;99818.53;;;8.50;100.00
29839;BME280;18669;53.356;-1.464;2023-04-28T02:21:12;99819.38;;;8.50;100.00
29839;BME280;18669;53.356;-1.464;2023-04-28T02:23:56;99812.47;;;8.46;100.00
29839;BME280;18669;53.356;-1.464;2023-04-28T02:26:41;99823.56;;;8.58;100.00
29839;BME280;18669;53.356;-1.464;2023-04-28T02:29:26;99806.19;;;8.54;100.00
29839;BME280;18669;53.356;-1.464;2023-04-28T02:32:11;99819.97;;;8.62;100.00
29839;BME280;18669;53.356;-1.464;2023-04-28T02:34:56;99813.00;;;8.61;100.00
29839;BME280;18669;53.356;-1.464;2023-04-28T02:37:41;99810.25;;;8.65;100.00
29839;BME280;18669;53.356;-1.464;2023-04-28T02:40:26;99806.00;;;8.61;100.00
29839;BME280;18669;53.356;-1.464;2023-04-28T02:43:11;99801.66;;;8.60;100.00
29839;BME280;18669;53.356;-1.464;2023-04-28T02:45:56;99799.16;;;8.56;100.00
29839;BME280;18669;53.356;-1.464;2023-04-28T02:48:41;99803.41;;;8.60;100.00
29839;BME280;18669;53.356;-1.464;2023-04-28T02:51:26;99798.97;;;8.63;100.00
29839;BME280;18669;53.356;-1.464;2023-04-28T02:54:10;99799.81;;;8.64;100.00
29839;BME280;18669;53.356;-1.464;2023-04-28T02:56:56;99802.44;;;8.64;100.00
29839;BME280;18669;53.356;-1.464;2023-04-28T02:59:41;99806.09;;;8.58;100.00
29839;BME280;18669;53.356;-1.464;2023-04-28T03:02:26;99801.59;;;8.63;100.00
29839;BME280;18669;53.356;-1.464;2023-04-28T03:05:11;99804.16;;;8.65;100.00
29839;BME280;18669;53.356;-1.464;2023-04-28T03:07:56;99797.31;;;8.59;100.00
29839;BME280;18669;53.356;-1.464;2023-04-28T03:10:40;99795.44;;;8.64;100.00
29839;BME280;18669;53.356;-1.464;2023-04-28T03:13:25;99796.38;;;8.62;100.00
29839;BME280;18669;53.356;-1.464;2023-04-28T03:16:11;99799.88;;;8.61;100.00
29839;BME280;18669;53.356;-1.464;2023-04-28T03:18:56;99799.75;;;8.65;100.00
29839;BME280;18669;53.356;-1.464;2023-04-28T03:21:41;99794.50;;;8.67;100.00
29839;BME280;18669;53.356;-1.464;2023-04-28T03:24:26;99792.81;;;8.64;100.00
29839;BME280;18669;53.356;-1.464;2023-04-28T03:27:11;99793.75;;;8.62;100.00
29839;BME280;18669;53.356;-1.464;2023-04-28T03:29:56;99802.22;;;8.72;100.00
29839;BME280;18669;53.356;-1.464;2023-04-28T03:32:41;99791.81;;;8.69;100.00
29839;BME280;18669;53.356;-1.464;2023-04-28T03:35:26;99794.44;;;8.69;100.00
29839;BME280;18669;53.356;-1.464;2023-04-28T03:38:11;99783.94;;;8.70;100.00
29839;BME280;18669;53.356;-1.464;2023-04-28T03:40:55;99791.03;;;8.65;100.00
29839;BME280;18669;53.356;-1.464;2023-04-28T03:43:40;99785.84;;;8.63;100.00
29839;BME280;18669;53.356;-1.464;2023-04-28T03:46:25;99780.69;;;8.60;100.00
29839;BME280;18669;53.356;-1.464;2023-04-28T03:49:10;99768.28;;;8.67;100.00
29839;BME280;18669;53.356;-1.464;2023-04-28T03:51:55;99770.88;;;8.67;100.00
29839;BME280;18669;53.356;-1.464;2023-04-28T03:54:40;99768.28;;;8.67;100.00
29839;BME280;18669;53.356;-1.464;2023-04-28T03:57:25;99767.28;;;8.71;100.00
29839;BME280;18669;53.356;-1.464;2023-04-28T04:00:10;99761.81;;;8.79;100.00
29839;BME280;18669;53.356;-1.464;2023-04-28T04:02:55;99754.00;;;8.77;100.00
29839;BME280;18669;53.356;-1.464;2023-04-28T04:05:40;99756.59;;;8.79;100.00
29839;BME280;18669;53.356;-1.464;2023-04-28T04:08:25;99747.88;;;8.78;100.00
29839;BME280;18669;53.356;-1.464;2023-04-28T04:11:09;99746.16;;;8.77;100.00
29839;BME280;18669;53.356;-1.464;2023-04-28T04:13:54;99755.00;;;8.73;100.00
29839;BME280;18669;53.356;-1.464;2023-04-28T04:16:39;99768.34;;;8.64;100.00
29839;BME280;18669;53.356;-1.464;2023-04-28T04:19:24;99764.00;;;8.63;100.00
29839;BME280;18669;53.356;-1.464;2023-04-28T04:22:10;99763.25;;;8.59;100.00
29839;BME280;18669;53.356;-1.464;2023-04-28T04:24:54;99767.66;;;8.57;100.00
29839;BME280;18669;53.356;-1.464;2023-04-28T04:27:39;99766.63;;;8.63;100.00
29839;BME280;18669;53.356;-1.464;2023-04-28T04:30:24;99779.53;;;8.71;100.00
29839;BME280;18669;53.356;-1.464;2023-04-28T04:33:09;99776.91;;;8.71;100.00
29839;BME280;18669;53.356;-1.464;2023-04-28T04:35:54;99766.50;;;8.68;100.00
29839;BME280;18669;53.356;-1.464;2023-04-28T04:38:39;99779.50;;;8.72;100.00
29839;BME280;18669;53.356;-1.464;2023-04-28T04:41:27;99778.38;;;8.81;100.00
29839;BME280;18669;53.356;-1.464;2023-04-28T04:44:12;99786.41;;;8.75;100.00
29839;BME280;18669;53.356;-1.464;2023-04-28T04:46:57;99781.06;;;8.79;100.00
29839;BME280;18669;53.356;-1.464;2023-04-28T04:49:41;99779.28;;;8.80;100.00
29839;BME280;18669;53.356;-1.464;2023-04-28T04:52:26;99778.31;;;8.84;100.00
29839;BME280;18669;53.356;-1.464;2023-04-28T04:55:11;99781.69;;;8.88;100.00
29839;BME280;18669;53.356;-1.464;2023-04-28T04:57:56;99785.13;;;8.90;100.00
29839;BME280;18669;53.356;-1.464;2023-04-28T05:00:41;99779.94;;;8.88;100.00
29839;BME280;18669;53.356;-1.464;2023-04-28T05:03:26;99793.09;;;8.87;100.00
29839;BME280;18669;53.356;-1.464;2023-04-28T05:06:11;99784.59;;;8.78;100.00
29839;BME280;18669;53.356;-1.464;2023-04-28T05:08:56;99789.00;;;8.76;100.00
29839;BME280;18669;53.356;-1.464;2023-04-28T05:11:42;99783.72;;;8.78;100.00
29839;BME280;18669;53.356;-1.464;2023-04-28T05:14:27;99788.97;;;8.78;100.00
29839;BME280;18669;53.356;-1.464;2023-04-28T05:17:12;99792.63;;;8.72;100.00
29839;BME280;18669;53.356;-1.464;2023-04-28T05:19:57;99803.88;;;8.76;100.00
29839;BME280;18669;53.356;-1.464;2023-04-28T05:22:41;99800.19;;;8.83;100.00
29839;BME280;18669;53.356;-1.464;2023-04-28T05:25:26;99792.09;;;8.91;100.00
29839;BME280;18669;53.356;-1.464;2023-04-28T05:28:11;99808.63;;;8.94;100.00
29839;BME280;18669;53.356;-1.464;2023-04-28T05:30:56;99804.28;;;8.93;100.00
29839;BME280;18669;53.356;-1.464;2023-04-28T05:33:41;99802.69;;;8.88;100.00
29839;BME280;18669;53.356;-1.464;2023-04-28T05:36:26;99809.69;;;8.87;100.00
29839;BME280;18669;53.356;-1.464;2023-04-28T05:39:11;99814.97;;;8.86;100.00
29839;BME280;18669;53.356;-1.464;2023-04-28T05:41:56;99820.31;;;8.83;100.00
29839;BME280;18669;53.356;-1.464;2023-04-28T05:44:42;99821.03;;;8.88;100.00
29839;BME280;18669;53.356;-1.464;2023-04-28T05:47:26;99827.91;;;8.93;100.00
29839;BME280;18669;53.356;-1.464;2023-04-28T05:50:11;99823.50;;;8.94;100.00
29839;BME280;18669;53.356;-1.464;2023-04-28T05:52:56;99824.09;;;9.04;100.00
29839;BME280;18669;53.356;-1.464;2023-04-28T05:55:41;99822.38;;;9.03;100.00
29839;BME280;18669;53.356;-1.464;2023-04-28T05:58:26;99823.19;;;9.05;100.00
29839;BME280;18669;53.356;-1.464;2023-04-28T06:01:11;99822.13;;;9.12;100.00
29839;BME280;18669;53.356;-1.464;2023-04-28T06:03:56;99817.03;;;9.07;100.00
29839;BME280;18669;53.356;-1.464;2023-04-28T06:06:42;99811.63;;;9.14;100.00
29839;BME280;18669;53.356;-1.464;2023-04-28T06:09:27;99808.94;;;9.15;100.00
29839;BME280;18669;53.356;-1.464;2023-04-28T06:12:12;99814.34;;;9.09;100.00
29839;BME280;18669;53.356;-1.464;2023-04-28T06:14:57;99810.91;;;9.07;100.00
29839;BME280;18669;53.356;-1.464;2023-04-28T06:17:42;99809.91;;;9.11;100.00
29839;BME280;18669;53.356;-1.464;2023-04-28T06:20:28;99812.63;;;9.08;100.00
29839;BME280;18669;53.356;-1.464;2023-04-28T06:23:13;99815.53;;;8.99;100.00
29839;BME280;18669;53.356;-1.464;2023-04-28T06:25:58;99821.56;;;9.01;100.00
29839;BME280;18669;53.356;-1.464;2023-04-28T06:28:44;99827.09;;;8.90;100.00
29839;BME280;18669;53.356;-1.464;2023-04-28T06:31:29;99837.44;;;8.96;100.00
29839;BME280;18669;53.356;-1.464;2023-04-28T06:34:15;99833.09;;;8.95;100.00
29839;BME280;18669;53.356;-1.464;2023-04-28T06:37:00;99842.53;;;9.02;100.00
29839;BME280;18669;53.356;-1.464;2023-04-28T06:39:45;99851.25;;;9.03;100.00
29839;BME280;18669;53.356;-1.464;2023-04-28T06:42:33;99841.38;;;9.13;100.00
29839;BME280;18669;53.356;-1.464;2023-04-28T06:45:18;99846.66;;;9.11;100.00
29839;BME280;18669;53.356;-1.464;2023-04-28T06:48:04;99849.25;;;9.13;100.00
29839;BME280;18669;53.356;-1.464;2023-04-28T06:50:49;99845.97;;;9.04;100.00
29839;BME280;18669;53.356;-1.464;2023-04-28T06:53:34;99844.13;;;9.08;100.00
29839;BME280;18669;53.356;-1.464;2023-04-28T06:56:19;99839.78;;;9.07;100.00
29839;BME280;18669;53.356;-1.464;2023-04-28T06:59:03;99833.75;;;9.03;100.00
29839;BME280;18669;53.356;-1.464;2023-04-28T07:01:48;99846.72;;;9.09;100.00
29839;BME280;18669;53.356;-1.464;2023-04-28T07:04:33;99850.19;;;9.10;100.00
29839;BME280;18669;53.356;-1.464;2023-04-28T07:07:18;99848.38;;;9.12;100.00
29839;BME280;18669;53.356;-1.464;2023-04-28T07:10:03;99857.56;;;9.29;100.00
29839;BME280;18669;53.356;-1.464;2023-04-28T07:12:49;99852.84;;;9.40;100.00
29839;BME280;18669;53.356;-1.464;2023-04-28T07:15:35;99858.75;;;9.48;100.00
29839;BME280;18669;53.356;-1.464;2023-04-28T07:18:20;99861.34;;;9.50;100.00
29839;BME280;18669;53.356;-1.464;2023-04-28T07:21:05;99861.13;;;9.58;100.00
29839;BME280;18669;53.356;-1.464;2023-04-28T07:23:49;99863.09;;;9.81;100.00
29839;BME280;18669;53.356;-1.464;2023-04-28T07:26:34;99862.00;;;9.88;100.00
29839;BME280;18669;53.356;-1.464;2023-04-28T07:29:19;99862.50;;;9.99;100.00
29839;BME280;18669;53.356;-1.464;2023-04-28T07:32:04;99878.28;;;9.99;100.00
29839;BME280;18669;53.356;-1.464;2023-04-28T07:34:51;99879.88;;;10.05;100.00
29839;BME280;18669;53.356;-1.464;2023-04-28T07:37:36;99883.25;;;10.09;100.00
29839;BME280;18669;53.356;-1.464;2023-04-28T07:40:21;99885.78;;;10.12;100.00
29839;BME280;18669;53.356;-1.464;2023-04-28T07:43:06;99892.53;;;10.21;100.00
29839;BME280;18669;53.356;-1.464;2023-04-28T07:45:51;99897.34;;;10.35;100.00
29839;BME280;18669;53.356;-1.464;2023-04-28T07:48:36;99900.16;;;10.28;100.00
29839;BME280;18669;53.356;-1.464;2023-04-28T07:51:21;99901.41;;;10.17;100.00
29839;BME280;18669;53.356;-1.464;2023-04-28T07:54:06;99903.13;;;10.18;100.00
29839;BME280;18669;53.356;-1.464;2023-04-28T07:56:51;99914.56;;;10.17;100.00
29839;BME280;18669;53.356;-1.464;2023-04-28T07:59:36;99910.34;;;10.11;100.00
29839;BME280;18669;53.356;-1.464;2023-04-28T08:02:21;99906.84;;;10.10;100.00
29839;BME280;18669;53.356;-1.464;2023-04-28T08:05:06;99922.50;;;10.15;100.00
29839;BME280;18669;53.356;-1.464;2023-04-28T08:07:52;99922.34;;;10.20;100.00
29839;BME280;18669;53.356;-1.464;2023-04-28T08:10:37;99927.03;;;10.10;100.00
29839;BME280;18669;53.356;-1.464;2023-04-28T08:13:25;99926.13;;;10.11;100.00
29839;BME280;18669;53.356;-1.464;2023-04-28T08:16:12;99930.56;;;10.09;100.00
29839;BME280;18669;53.356;-1.464;2023-04-28T08:18:57;99940.84;;;10.17;100.00
29839;BME280;18669;53.356;-1.464;2023-04-28T08:21:43;99936.41;;;10.19;100.00
29839;BME280;18669;53.356;-1.464;2023-04-28T08:24:27;99948.06;;;10.10;100.00
29839;BME280;18669;53.356;-1.464;2023-04-28T08:27:13;99948.88;;;10.12;100.00
29839;BME280;18669;53.356;-1.464;2023-04-28T08:29:58;99961.03;;;10.16;100.00
29839;BME280;18669;53.356;-1.464;2023-04-28T08:32:43;99944.94;;;10.25;100.00
29839;BME280;18669;53.356;-1.464;2023-04-28T08:35:28;99953.00;;;10.51;100.00
29839;BME280;18669;53.356;-1.464;2023-04-28T08:38:13;99962.22;;;10.64;100.00
29839;BME280;18669;53.356;-1.464;2023-04-28T08:41:03;99965.31;;;10.77;100.00
29839;BME280;18669;53.356;-1.464;2023-04-28T08:43:48;99971.78;;;10.67;100.00
29839;BME280;18669;53.356;-1.464;2023-04-28T08:46:33;99966.50;;;10.67;100.00
29839;BME280;18669;53.356;-1.464;2023-04-28T08:49:22;99979.47;;;10.73;100.00
29839;BME280;18669;53.356;-1.464;2023-04-28T08:52:15;99974.38;;;10.68;100.00
29839;BME280;18669;53.356;-1.464;2023-04-28T08:55:06;99975.63;;;10.56;100.00
29839;BME280;18669;53.356;-1.464;2023-04-28T08:57:51;99988.97;;;10.50;100.00
29839;BME280;18669;53.356;-1.464;2023-04-28T09:00:38;99982.88;;;10.48;100.00
29839;BME280;18669;53.356;-1.464;2023-04-28T09:03:22;99985.34;;;10.54;100.00
29839;BME280;18669;53.356;-1.464;2023-04-28T09:06:07;99985.91;;;10.64;100.00
29839;BME280;18669;53.356;-1.464;2023-04-28T09:08:54;99988.34;;;10.70;100.00
29839;BME280;18669;53.356;-1.464;2023-04-28T09:11:59;99990.81;;;10.75;100.00
29839;BME280;18669;53.356;-1.464;2023-04-28T09:14:44;99998.19;;;10.64;100.00
29839;BME280;18669;53.356;-1.464;2023-04-28T09:17:29;99999.78;;;10.69;100.00
29839;BME280;18669;53.356;-1.464;2023-04-28T09:23:18;100009.25;;;11.02;100.00
29839;BME280;18669;53.356;-1.464;2023-04-28T09:26:05;100007.50;;;11.29;100.00
29839;BME280;18669;53.356;-1.464;2023-04-28T09:28:51;100008.91;;;11.13;100.00
29839;BME280;18669;53.356;-1.464;2023-04-28T09:31:40;100019.03;;;11.25;100.00
29839;BME280;18669;53.356;-1.464;2023-04-28T09:34:41;100018.97;;;11.54;100.00
29839;BME280;18669;53.356;-1.464;2023-04-28T09:37:29;100014.63;;;11.53;100.00
29839;BME280;18669;53.356;-1.464;2023-04-28T09:40:14;100012.94;;;11.75;100.00
29839;BME280;18669;53.356;-1.464;2023-04-28T09:43:00;100025.09;;;11.79;100.00
29839;BME280;18669;53.356;-1.464;2023-04-28T09:45:45;100023.66;;;11.71;100.00
29839;BME280;18669;53.356;-1.464;2023-04-28T09:48:37;100028.91;;;11.71;100.00
29839;BME280;18669;53.356;-1.464;2023-04-28T09:51:24;100026.22;;;11.47;100.00
29839;BME280;18669;53.356;-1.464;2023-04-28T09:54:09;100030.00;;;11.65;100.00
29839;BME280;18669;53.356;-1.464;2023-04-28T09:56:55;100031.69;;;11.91;100.00
29839;BME280;18669;53.356;-1.464;2023-04-28T09:59:41;100037.22;;;12.34;100.00
29839;BME280;18669;53.356;-1.464;2023-04-28T10:02:28;100035.44;;;12.81;100.00
29839;BME280;18669;53.356;-1.464;2023-04-28T10:05:15;100028.53;;;13.21;100.00
29839;BME280;18669;53.356;-1.464;2023-04-28T10:08:01;100043.34;;;13.48;100.00
29839;BME280;18669;53.356;-1.464;2023-04-28T10:10:48;100035.66;;;13.19;100.00
29839;BME280;18669;53.356;-1.464;2023-04-28T10:13:34;100050.09;;;13.33;100.00
29839;BME280;18669;53.356;-1.464;2023-04-28T10:16:21;100047.69;;;13.06;100.00
29839;BME280;18669;53.356;-1.464;2023-04-28T10:19:07;100059.75;;;12.89;100.00
29839;BME280;18669;53.356;-1.464;2023-04-28T10:22:06;100060.09;;;12.80;100.00
29839;BME280;18669;53.356;-1.464;2023-04-28T10:25:15;100067.19;;;12.79;100.00
29839;BME280;18669;53.356;-1.464;2023-04-28T10:28:07;100071.31;;;12.63;100.00
29839;BME280;18669;53.356;-1.464;2023-04-28T10:31:12;100072.06;;;12.43;100.00
29839;BME280;18669;53.356;-1.464;2023-04-28T10:34:20;100085.38;;;12.39;100.00
29839;BME280;18669;53.356;-1.464;2023-04-28T10:37:06;100079.81;;;12.23;100.00
29839;BME280;18669;53.356;-1.464;2023-04-28T10:40:31;100094.91;;;12.44;100.00
29839;BME280;18669;53.356;-1.464;2023-04-28T10:46:14;100081.81;;;12.41;100.00
29839;BME280;18669;53.356;-1.464;2023-04-28T10:48:58;100094.16;;;12.40;100.00
29839;BME280;18669;53.356;-1.464;2023-04-28T10:51:43;100097.94;;;12.33;100.00
29839;BME280;18669;53.356;-1.464;2023-04-28T10:54:28;100110.41;;;12.53;100.00
29839;BME280;18669;53.356;-1.464;2023-04-28T10:57:16;100107.03;;;12.49;100.00
29839;BME280;18669;53.356;-1.464;2023-04-28T11:00:26;100113.28;;;12.71;100.00
29839;BME280;18669;53.356;-1.464;2023-04-28T11:07:10;100127.19;;;12.98;100.00
29839;BME280;18669;53.356;-1.464;2023-04-28T11:09:58;100120.72;;;12.83;100.00
29839;BME280;18669;53.356;-1.464;2023-04-28T11:16:06;100131.28;;;12.83;100.00
29839;BME280;18669;53.356;-1.464;2023-04-28T11:18:57;100132.66;;;12.93;100.00
29839;BME280;18669;53.356;-1.464;2023-04-28T11:21:42;100138.03;;;12.90;100.00
29839;BME280;18669;53.356;-1.464;2023-04-28T11:24:29;100131.53;;;12.99;100.00
29839;BME280;18669;53.356;-1.464;2023-04-28T11:27:22;100138.31;;;13.28;100.00
29839;BME280;18669;53.356;-1.464;2023-04-28T11:30:20;100135.81;;;13.25;100.00
29839;BME280;18669;53.356;-1.464;2023-04-28T11:33:10;100140.59;;;13.16;100.00
29839;BME280;18669;53.356;-1.464;2023-04-28T11:35:55;100143.41;;;13.33;100.00
29839;BME280;18669;53.356;-1.464;2023-04-28T11:38:43;100153.81;;;13.38;100.00
29839;BME280;18669;53.356;-1.464;2023-04-28T11:41:28;100154.72;;;12.91;100.00
29839;BME280;18669;53.356;-1.464;2023-04-28T11:44:14;100154.19;;;12.82;100.00
29839;BME280;18669;53.356;-1.464;2023-04-28T11:47:01;100163.47;;;12.69;100.00
29839;BME280;18669;53.356;-1.464;2023-04-28T11:49:46;100172.38;;;12.66;100.00
29839;BME280;18669;53.356;-1.464;2023-04-28T11:52:30;100173.63;;;12.56;100.00
29839;BME280;18669;53.356;-1.464;2023-04-28T11:55:16;100184.44;;;12.48;100.00
29839;BME280;18669;53.356;-1.464;2023-04-28T11:58:19;100184.28;;;12.53;100.00
29839;BME280;18669;53.356;-1.464;2023-04-28T12:01:12;100191.44;;;12.49;100.00
29839;BME280;18669;53.356;-1.464;2023-04-28T12:03:59;100206.63;;;12.43;100.00
29839;BME280;18669;53.356;-1.464;2023-04-28T12:06:44;100196.66;;;12.26;100.00
29839;BME280;18669;53.356;-1.464;2023-04-28T12:09:29;100205.00;;;12.13;100.00
29839;BME280;18669;53.356;-1.464;2023-04-28T12:12:26;100222.13;;;12.27;100.00
29839;BME280;18669;53.356;-1.464;2023-04-28T12:15:12;100210.94;;;11.91;100.00
29839;BME280;18669;53.356;-1.464;2023-04-28T12:18:08;100236.41;;;12.19;100.00
29839;BME280;18669;53.356;-1.464;2023-04-28T12:20:53;100233.41;;;12.05;100.00
29839;BME280;18669;53.356;-1.464;2023-04-28T12:23:38;100238.72;;;12.03;100.00
29839;BME280;18669;53.356;-1.464;2023-04-28T12:26:25;100244.88;;;12.02;100.00
29839;BME280;18669;53.356;-1.464;2023-04-28T12:32:40;100256.97;;;12.09;100.00
29839;BME280;18669;53.356;-1.464;2023-04-28T12:35:28;100256.53;;;11.95;100.00
29839;BME280;18669;53.356;-1.464;2023-04-28T12:38:13;100267.31;;;11.87;100.00
29839;BME280;18669;53.356;-1.464;2023-04-28T12:40:58;100257.56;;;11.91;100.00
29839;BME280;18669;53.356;-1.464;2023-04-28T12:43:43;100268.84;;;11.94;100.00
29839;BME280;18669;53.356;-1.464;2023-04-28T12:46:29;100270.31;;;12.05;100.00
29839;BME280;18669;53.356;-1.464;2023-04-28T12:49:14;100270.47;;;11.99;100.00
29839;BME280;18669;53.356;-1.464;2023-04-28T12:52:00;100271.38;;;11.98;100.00
29839;BME280;18669;53.356;-1.464;2023-04-28T12:54:45;100279.28;;;11.99;100.00
29839;BME280;18669;53.356;-1.464;2023-04-28T12:57:30;100282.28;;;11.87;100.00
29839;BME280;18669;53.356;-1.464;2023-04-28T13:00:15;100285.63;;;11.92;100.00
29839;BME280;18669;53.356;-1.464;2023-04-28T13:03:00;100285.16;;;11.79;100.00
29839;BME280;18669;53.356;-1.464;2023-04-28T13:05:45;100299.25;;;11.78;100.00
29839;BME280;18669;53.356;-1.464;2023-04-28T13:08:30;100305.44;;;11.77;100.00
29839;BME280;18669;53.356;-1.464;2023-04-28T13:11:17;100315.00;;;11.79;100.00
29839;BME280;18669;53.356;-1.464;2023-04-28T13:14:02;100302.56;;;11.83;100.00
29839;BME280;18669;53.356;-1.464;2023-04-28T13:16:47;100310.13;;;11.96;100.00
29839;BME280;18669;53.356;-1.464;2023-04-28T13:19:32;100304.75;;;11.99;100.00
29839;BME280;18669;53.356;-1.464;2023-04-28T13:22:18;100315.94;;;12.07;100.00
29839;BME280;18669;53.356;-1.464;2023-04-28T13:25:03;100318.50;;;12.10;100.00
29839;BME280;18669;53.356;-1.464;2023-04-28T13:27:48;100323.34;;;12.22;100.00
29839;BME280;18669;53.356;-1.464;2023-04-28T13:30:33;100319.97;;;12.46;100.00
29839;BME280;18669;53.356;-1.464;2023-04-28T13:33:18;100313.66;;;12.50;100.00
29839;BME280;18669;53.356;-1.464;2023-04-28T13:36:03;100330.88;;;12.87;100.00
29839;BME280;18669;53.356;-1.464;2023-04-28T13:38:49;100327.53;;;13.07;100.00
29839;BME280;18669;53.356;-1.464;2023-04-28T13:41:34;100323.81;;;13.13;100.00
29839;BME280;18669;53.356;-1.464;2023-04-28T13:44:19;100319.28;;;13.17;100.00
29839;BME280;18669;53.356;-1.464;2023-04-28T13:47:04;100319.94;;;12.98;100.00
29839;BME280;18669;53.356;-1.464;2023-04-28T13:49:52;100331.25;;;12.76;100.00
29839;BME280;18669;53.356;-1.464;2023-04-28T13:52:37;100342.28;;;12.62;100.00
29839;BME280;18669;53.356;-1.464;2023-04-28T13:55:22;100343.22;;;12.61;100.00
29839;BME280;18669;53.356;-1.464;2023-04-28T13:58:11;100343.47;;;12.79;100.00
29839;BME280;18669;53.356;-1.464;2023-04-28T14:00:55;100342.63;;;12.78;100.00
29839;BME280;18669;53.356;-1.464;2023-04-28T14:03:40;100339.19;;;12.76;100.00
29839;BME280;18669;53.356;-1.464;2023-04-28T14:06:25;100342.09;;;12.94;100.00
29839;BME280;18669;53.356;-1.464;2023-04-28T14:09:10;100345.31;;;13.02;100.00
29839;BME280;18669;53.356;-1.464;2023-04-28T14:11:55;100332.50;;;13.17;100.00
29839;BME280;18669;53.356;-1.464;2023-04-28T14:14:45;100341.19;;;13.44;100.00
29839;BME280;18669;53.356;-1.464;2023-04-28T14:17:30;100340.97;;;13.50;100.00
29839;BME280;18669;53.356;-1.464;2023-04-28T14:20:18;100336.34;;;13.57;100.00
29839;BME280;18669;53.356;-1.464;2023-04-28T14:23:03;100342.91;;;13.45;100.00
29839;BME280;18669;53.356;-1.464;2023-04-28T14:25:47;100352.53;;;13.48;100.00
29839;BME280;18669;53.356;-1.464;2023-04-28T14:28:33;100344.00;;;13.39;100.00
29839;BME280;18669;53.356;-1.464;2023-04-28T14:31:18;100354.53;;;13.65;100.00
29839;BME280;18669;53.356;-1.464;2023-04-28T14:34:03;100350.75;;;13.72;100.00
29839;BME280;18669;53.356;-1.464;2023-04-28T14:36:48;100357.69;;;13.75;100.00